createdAt,value
2024-02-27T00:00:35.944Z,75.50
2024-02-27T00:03:02.492Z,75.70
2024-02-27T00:05:29.040Z,75.60
2024-02-27T00:07:55.645Z,76.00
2024-02-27T00:10:22.170Z,75.80
2024-02-27T00:12:48.673Z,75.80
2024-02-27T00:15:15.237Z,75.70
2024-02-27T00:17:41.778Z,75.70
2024-02-27T00:20:08.299Z,75.50
2024-02-27T00:22:34.884Z,75.60
2024-02-27T00:25:01.374Z,75.60
2024-02-27T00:27:27.899Z,75.50
2024-02-27T00:29:54.494Z,75.70
2024-02-27T00:32:21.016Z,75.60
2024-02-27T00:34:47.544Z,75.60
2024-02-27T00:37:14.058Z,75.70
2024-02-27T00:39:40.649Z,75.50
2024-02-27T00:42:07.270Z,75.50
2024-02-27T00:44:33.901Z,75.40
2024-02-27T00:47:00.431Z,75.50
2024-02-27T00:49:27.086Z,75.70
2024-02-27T00:51:53.628Z,75.80
2024-02-27T00:54:20.151Z,75.50
2024-02-27T00:56:46.747Z,75.60
2024-02-27T00:59:13.279Z,75.90
2024-02-27T01:01:39.813Z,75.30
2024-02-27T01:04:06.441Z,76.20
2024-02-27T01:06:33.060Z,75.40
2024-02-27T01:08:59.716Z,75.50
2024-02-27T01:11:26.296Z,75.40
2024-02-27T01:13:52.845Z,75.20
2024-02-27T01:16:19.377Z,75.20
2024-02-27T01:18:45.929Z,75.10
2024-02-27T01:21:12.466Z,75.30
2024-02-27T01:23:38.982Z,75.30
2024-02-27T01:26:05.473Z,75.30
2024-02-27T01:28:31.959Z,75.20
2024-02-27T01:30:58.502Z,75.40
2024-02-27T01:33:25.107Z,75.20
2024-02-27T01:35:51.844Z,75.50
2024-02-27T01:38:18.410Z,75.40
2024-02-27T01:40:44.925Z,75.30
2024-02-27T01:43:11.432Z,75.30
2024-02-27T01:45:39.394Z,75.20
2024-02-27T01:48:06.035Z,75.30
2024-02-27T01:50:32.658Z,75.20
2024-02-27T01:52:59.160Z,76.00
2024-02-27T01:55:25.655Z,75.40
2024-02-27T01:57:52.181Z,75.10
2024-02-27T02:00:18.690Z,75.20
2024-02-27T02:02:45.198Z,75.50
2024-02-27T02:05:11.782Z,75.20
2024-02-27T02:07:38.289Z,75.50
2024-02-27T02:10:04.790Z,75.60
2024-02-27T02:12:31.316Z,75.40
2024-02-27T02:14:57.857Z,75.20
2024-02-27T02:17:24.412Z,75.60
2024-02-27T02:19:51.065Z,75.40
2024-02-27T02:22:17.610Z,75.40
2024-02-27T02:24:44.191Z,75.40
2024-02-27T02:27:10.775Z,75.20
2024-02-27T02:29:37.311Z,75.30
2024-02-27T02:32:03.866Z,75.30
2024-02-27T02:34:30.446Z,75.50
2024-02-27T02:36:56.980Z,75.60
2024-02-27T02:39:23.575Z,75.40
2024-02-27T02:41:50.131Z,75.10
2024-02-27T02:44:16.632Z,75.20
2024-02-27T02:46:43.136Z,75.30
2024-02-27T02:49:09.718Z,75.20
2024-02-27T02:51:36.397Z,75.00
2024-02-27T02:54:03.011Z,75.00
2024-02-27T02:56:29.574Z,75.10
2024-02-27T02:58:56.104Z,75.00
2024-02-27T03:01:22.635Z,74.90
2024-02-27T03:03:49.376Z,74.90
2024-02-27T03:06:16.064Z,75.00
2024-02-27T03:08:42.683Z,75.40
2024-02-27T03:11:09.199Z,75.30
2024-02-27T03:13:35.699Z,75.10
2024-02-27T03:16:02.347Z,75.10
2024-02-27T03:18:28.999Z,75.10
2024-02-27T03:20:55.754Z,75.10
2024-02-27T03:23:22.405Z,75.00
2024-02-27T03:25:48.929Z,75.00
2024-02-27T03:28:15.444Z,75.00
2024-02-27T03:30:41.983Z,75.10
2024-02-27T03:33:08.637Z,75.10
2024-02-27T03:35:35.250Z,74.80
2024-02-27T03:38:01.757Z,75.00
2024-02-27T03:40:28.266Z,75.10
2024-02-27T03:42:54.873Z,75.20
2024-02-27T03:45:21.483Z,75.20
2024-02-27T03:47:48.012Z,74.90
2024-02-27T03:50:14.523Z,74.80
2024-02-27T03:52:41.028Z,75.40
2024-02-27T03:55:07.564Z,74.90
2024-02-27T03:57:34.109Z,75.00
2024-02-27T04:00:00.762Z,75.10
2024-02-27T04:02:27.345Z,75.10
2024-02-27T04:04:53.943Z,74.90
2024-02-27T04:07:20.553Z,75.00
2024-02-27T04:09:47.163Z,75.50
2024-02-27T04:12:13.761Z,75.40
2024-02-27T04:14:40.334Z,75.20
2024-02-27T04:17:06.845Z,74.90
2024-02-27T04:19:33.482Z,75.30
2024-02-27T04:22:00.059Z,75.00
2024-02-27T04:24:26.588Z,75.00
2024-02-27T04:26:53.113Z,75.00
2024-02-27T04:29:19.603Z,75.10
2024-02-27T04:31:46.104Z,75.30
2024-02-27T04:34:12.682Z,74.90
2024-02-27T04:36:39.264Z,74.90
2024-02-27T04:39:05.829Z,74.90
2024-02-27T04:41:32.352Z,74.90
2024-02-27T04:43:58.841Z,74.90
2024-02-27T04:46:25.360Z,74.80
2024-02-27T04:48:51.965Z,74.90
2024-02-27T04:51:18.497Z,75.00
2024-02-27T04:53:45.004Z,75.00
2024-02-27T04:56:11.508Z,75.10
2024-02-27T04:58:38.013Z,75.10
2024-02-27T05:01:04.573Z,75.00
2024-02-27T05:03:31.209Z,75.00
2024-02-27T05:05:57.863Z,74.80
2024-02-27T05:08:24.415Z,74.90
2024-02-27T05:10:50.947Z,74.70
2024-02-27T05:13:17.478Z,74.90
2024-02-27T05:15:44.000Z,75.20
2024-02-27T05:18:10.729Z,74.80
2024-02-27T05:20:37.336Z,75.20
2024-02-27T05:23:03.823Z,75.10
2024-02-27T05:25:30.322Z,75.10
2024-02-27T05:27:56.826Z,75.20
2024-02-27T05:30:23.368Z,75.10
2024-02-27T05:32:49.902Z,75.20
2024-02-27T05:35:16.440Z,75.30
2024-02-27T05:37:42.936Z,75.00
2024-02-27T05:40:09.451Z,74.90
2024-02-27T05:42:36.015Z,75.40
2024-02-27T05:45:02.588Z,75.10
2024-02-27T05:47:29.132Z,75.10
2024-02-27T05:49:55.825Z,74.90
2024-02-27T05:52:22.390Z,75.00
2024-02-27T05:54:48.934Z,74.90
2024-02-27T05:57:15.557Z,74.80
2024-02-27T05:59:42.111Z,75.00
2024-02-27T06:02:08.602Z,75.20
2024-02-27T06:04:35.109Z,75.00
2024-02-27T06:07:01.763Z,75.00
2024-02-27T06:09:28.377Z,74.90
2024-02-27T06:11:55.225Z,75.00
2024-02-27T06:14:22.420Z,75.20
2024-02-27T06:16:48.915Z,75.00
2024-02-27T06:19:15.483Z,74.90
2024-02-27T06:21:42.190Z,75.00
2024-02-27T06:24:08.819Z,75.00
2024-02-27T06:26:35.326Z,75.30
2024-02-27T06:29:01.827Z,75.10
2024-02-27T06:31:28.330Z,75.10
2024-02-27T06:33:54.959Z,75.10
2024-02-27T06:36:21.645Z,75.00
2024-02-27T06:38:48.156Z,75.00
2024-02-27T06:41:14.662Z,74.90
2024-02-27T06:43:41.161Z,74.90
2024-02-27T06:46:07.656Z,75.10
2024-02-27T06:48:34.358Z,74.90
2024-02-27T06:51:00.956Z,74.80
2024-02-27T06:53:27.527Z,74.80
2024-02-27T06:55:54.027Z,75.00
2024-02-27T06:58:20.538Z,75.10
2024-02-27T07:00:47.121Z,75.00
2024-02-27T07:03:13.798Z,74.60
2024-02-27T07:05:47.242Z,75.10
2024-02-27T07:08:19.740Z,74.90
2024-02-27T07:10:46.275Z,74.70
2024-02-27T07:13:12.887Z,75.10
2024-02-27T07:15:39.835Z,75.00
2024-02-27T07:18:06.539Z,74.90
2024-02-27T07:20:33.204Z,74.80
2024-02-27T07:22:59.733Z,74.80
2024-02-27T07:25:26.218Z,75.00
2024-02-27T07:27:52.843Z,75.00
2024-02-27T07:30:19.389Z,74.70
2024-02-27T07:32:45.949Z,75.00
2024-02-27T07:35:12.506Z,74.90
2024-02-27T07:37:39.060Z,75.00
2024-02-27T07:40:05.570Z,74.70
2024-02-27T07:42:32.165Z,74.80
2024-02-27T07:44:58.778Z,75.00
2024-02-27T07:47:25.367Z,74.80
2024-02-27T07:49:54.026Z,74.80
2024-02-27T07:52:21.847Z,74.80
2024-02-27T07:54:48.514Z,74.70
2024-02-27T07:57:15.083Z,74.80
2024-02-27T07:59:41.608Z,74.70
2024-02-27T08:02:08.118Z,74.70
2024-02-27T08:04:34.710Z,74.80
2024-02-27T08:07:01.394Z,74.70
2024-02-27T08:09:28.142Z,74.70
2024-02-27T08:11:54.674Z,74.40
2024-02-27T08:14:21.192Z,74.40
2024-02-27T08:16:47.720Z,74.40
2024-02-27T08:19:14.391Z,74.70
2024-02-27T08:21:41.161Z,74.60
2024-02-27T08:24:07.753Z,74.60
2024-02-27T08:26:34.314Z,74.20
2024-02-27T08:29:00.835Z,74.30
2024-02-27T08:31:27.350Z,75.20
2024-02-27T08:33:54.063Z,74.70
2024-02-27T08:36:20.664Z,74.70
2024-02-27T08:38:47.217Z,74.80
2024-02-27T08:41:13.716Z,74.50
2024-02-27T08:43:40.240Z,74.50
2024-02-27T08:46:06.748Z,74.60
2024-02-27T08:48:33.370Z,74.40
2024-02-27T08:50:59.982Z,75.00
2024-02-27T08:53:26.506Z,74.60
2024-02-27T08:55:53.032Z,75.00
2024-02-27T08:58:19.559Z,75.00
2024-02-27T09:00:46.203Z,74.80
2024-02-27T09:03:12.916Z,74.60
2024-02-27T09:05:39.480Z,74.60
2024-02-27T09:08:06.024Z,74.50
2024-02-27T09:10:32.559Z,74.60
2024-02-27T09:12:59.108Z,74.60
2024-02-27T09:15:25.641Z,74.50
2024-02-27T09:17:52.284Z,74.40
2024-02-27T09:20:18.861Z,74.50
2024-02-27T09:22:45.409Z,74.40
2024-02-27T09:25:12.133Z,74.10
2024-02-27T09:27:38.690Z,74.60
2024-02-27T09:30:05.225Z,74.50
2024-02-27T09:32:31.789Z,74.20
2024-02-27T09:34:58.457Z,74.80
2024-02-27T09:37:25.053Z,74.40
2024-02-27T09:39:58.375Z,74.50
2024-02-27T09:42:34.653Z,74.40
2024-02-27T09:45:02.868Z,74.50
2024-02-27T09:47:29.449Z,74.40
2024-02-27T09:49:56.087Z,74.70
2024-02-27T09:52:22.704Z,74.60
2024-02-27T09:54:49.307Z,74.40
2024-02-27T09:57:15.870Z,74.40
2024-02-27T09:59:42.385Z,74.30
2024-02-27T10:02:09.161Z,74.10
2024-02-27T10:04:35.906Z,74.10
2024-02-27T10:07:02.449Z,74.10
2024-02-27T10:09:28.992Z,74.20
2024-02-27T10:11:55.509Z,74.00
2024-02-27T10:14:22.063Z,74.10
2024-02-27T10:16:48.579Z,74.10
2024-02-27T10:19:15.184Z,74.20
2024-02-27T10:21:41.768Z,74.30
2024-02-27T10:24:08.302Z,74.10
2024-02-27T10:26:34.816Z,74.00
2024-02-27T10:29:01.301Z,74.10
2024-02-27T10:31:27.810Z,74.10
2024-02-27T10:33:54.409Z,74.10
2024-02-27T10:36:21.087Z,74.00
2024-02-27T10:38:47.635Z,74.00
2024-02-27T10:41:14.154Z,74.00
2024-02-27T10:43:40.655Z,74.00
2024-02-27T10:46:07.158Z,74.30
2024-02-27T10:48:38.854Z,74.00
2024-02-27T10:51:10.804Z,74.30
2024-02-27T10:53:37.324Z,74.40
2024-02-27T10:56:03.858Z,74.20
2024-02-27T10:58:30.352Z,74.10
2024-02-27T11:00:57.003Z,74.00
2024-02-27T11:03:23.655Z,74.10
2024-02-27T11:05:50.275Z,74.30
2024-02-27T11:08:16.849Z,74.20
2024-02-27T11:10:43.452Z,74.10
2024-02-27T11:13:09.986Z,74.00
2024-02-27T11:15:36.586Z,74.10
2024-02-27T11:18:03.311Z,74.00
2024-02-27T11:20:29.902Z,74.10
2024-02-27T11:22:56.412Z,74.10
2024-02-27T11:25:22.928Z,74.00
2024-02-27T11:27:49.507Z,74.30
2024-02-27T11:30:16.166Z,74.30
2024-02-27T11:32:42.774Z,74.10
2024-02-27T11:35:09.456Z,74.20
2024-02-27T11:37:36.056Z,74.10
2024-02-27T11:40:02.728Z,74.20
2024-02-27T11:42:29.474Z,74.20
2024-02-27T11:44:56.043Z,74.30
2024-02-27T11:47:22.593Z,74.40
2024-02-27T11:49:49.178Z,74.30
2024-02-27T11:52:15.737Z,74.30
2024-02-27T11:54:42.272Z,74.10
2024-02-27T11:57:08.936Z,74.20
2024-02-27T11:59:35.475Z,74.40
2024-02-27T12:02:02.036Z,74.50
2024-02-27T12:04:28.659Z,74.80
2024-02-27T12:06:55.354Z,74.30
2024-02-27T12:09:22.006Z,74.10
2024-02-27T12:11:48.557Z,74.10
2024-02-27T12:14:15.048Z,74.00
2024-02-27T12:16:41.600Z,74.20
2024-02-27T12:19:08.218Z,74.00
2024-02-27T12:21:34.803Z,73.90
2024-02-27T12:24:01.410Z,73.90
2024-02-27T12:26:27.932Z,74.10
2024-02-27T12:28:54.455Z,74.10
2024-02-27T12:31:20.984Z,74.40
2024-02-27T12:33:47.644Z,74.10
2024-02-27T12:36:14.283Z,74.00
2024-02-27T12:38:40.783Z,74.20
2024-02-27T12:41:07.382Z,74.30
2024-02-27T12:43:33.896Z,74.20
2024-02-27T12:46:00.489Z,74.20
2024-02-27T12:48:27.098Z,74.10
2024-02-27T12:50:53.702Z,74.30
2024-02-27T12:53:20.196Z,74.40
2024-02-27T12:55:46.754Z,75.10
2024-02-27T12:58:13.254Z,74.30
2024-02-27T13:00:39.886Z,74.60
2024-02-27T13:03:06.504Z,74.40
2024-02-27T13:05:33.132Z,74.50
2024-02-27T13:07:59.870Z,74.40
2024-02-27T13:10:26.423Z,74.60
2024-02-27T13:12:52.932Z,74.40
2024-02-27T13:15:19.551Z,74.40
2024-02-27T13:17:46.174Z,74.50
2024-02-27T13:20:12.782Z,74.60
2024-02-27T13:22:39.301Z,74.80
2024-02-27T13:25:05.835Z,74.60
2024-02-27T13:27:32.415Z,74.60
2024-02-27T13:29:58.962Z,74.70
2024-02-27T13:32:25.500Z,74.80
2024-02-27T13:34:52.312Z,74.70
2024-02-27T13:37:18.979Z,74.70
2024-02-27T13:39:45.597Z,74.70
2024-02-27T13:42:12.184Z,74.40
2024-02-27T13:44:38.727Z,74.50
2024-02-27T13:47:05.233Z,74.30
2024-02-27T13:49:31.816Z,74.40
2024-02-27T13:51:58.360Z,74.60
2024-02-27T13:54:24.937Z,74.40
2024-02-27T13:56:51.467Z,74.50
2024-02-27T13:59:17.998Z,74.40
2024-02-27T14:01:44.570Z,74.40
2024-02-27T14:04:11.266Z,74.60
2024-02-27T14:06:37.944Z,74.60
2024-02-27T14:09:04.492Z,74.40
2024-02-27T14:11:31.016Z,74.40
2024-02-27T14:14:03.911Z,74.20
2024-02-27T14:16:37.523Z,74.10
2024-02-27T14:19:04.111Z,74.20
2024-02-27T14:21:30.686Z,74.20
2024-02-27T14:23:57.229Z,74.10
2024-02-27T14:26:23.840Z,74.10
2024-02-27T14:28:50.392Z,74.10
2024-02-27T14:31:16.898Z,74.40
2024-02-27T14:33:43.654Z,74.60
2024-02-27T14:36:10.283Z,74.50
2024-02-27T14:38:36.831Z,74.40
2024-02-27T14:41:03.352Z,74.40
2024-02-27T14:43:29.872Z,74.30
2024-02-27T14:45:56.402Z,74.00
2024-02-27T14:48:23.127Z,74.10
2024-02-27T14:50:49.729Z,74.20
2024-02-27T14:53:16.243Z,74.10
2024-02-27T14:55:43.612Z,74.10
2024-02-27T14:58:10.341Z,74.00
2024-02-27T15:00:36.943Z,74.00
2024-02-27T15:03:03.621Z,74.00
2024-02-27T15:05:30.124Z,73.90
2024-02-27T15:07:56.686Z,73.90
2024-02-27T15:10:23.208Z,73.80
2024-02-27T15:12:49.782Z,73.80
2024-02-27T15:15:16.435Z,73.90
2024-02-27T15:17:43.045Z,73.80
2024-02-27T15:20:09.609Z,73.80
2024-02-27T15:22:36.123Z,73.80
2024-02-27T15:25:02.664Z,73.70
2024-02-27T15:27:29.241Z,73.80
2024-02-27T15:29:55.769Z,73.90
2024-02-27T15:32:22.293Z,74.00
2024-02-27T15:34:48.957Z,73.90
2024-02-27T15:37:15.534Z,73.90
2024-02-27T15:39:42.065Z,73.90
2024-02-27T15:42:09.466Z,73.80
2024-02-27T15:44:36.055Z,73.90
2024-02-27T15:47:02.587Z,73.70
2024-02-27T15:49:29.191Z,73.70
2024-02-27T15:51:55.772Z,73.80
2024-02-27T15:54:22.312Z,73.90
2024-02-27T15:56:48.915Z,73.90
2024-02-27T15:59:15.411Z,73.80
2024-02-27T16:01:42.020Z,73.70
2024-02-27T16:04:08.667Z,73.90
2024-02-27T16:06:35.465Z,73.90
2024-02-27T16:09:01.992Z,73.90
2024-02-27T16:11:28.599Z,74.10
2024-02-27T16:13:55.129Z,73.90
2024-02-27T16:16:21.658Z,74.00
2024-02-27T16:18:48.319Z,73.90
2024-02-27T16:21:14.950Z,74.00
2024-02-27T16:23:41.502Z,73.90
2024-02-27T16:26:08.039Z,73.80
2024-02-27T16:28:34.530Z,74.00
2024-02-27T16:31:01.117Z,74.00
2024-02-27T16:33:27.801Z,74.00
2024-02-27T16:35:54.481Z,73.90
2024-02-27T16:38:20.974Z,73.90
2024-02-27T16:40:47.532Z,73.80
2024-02-27T16:43:14.045Z,74.00
2024-02-27T16:45:40.620Z,74.00
2024-02-27T16:48:07.369Z,73.90
2024-02-27T16:50:34.051Z,74.00
2024-02-27T16:53:00.614Z,74.00
2024-02-27T16:55:27.131Z,74.00
2024-02-27T16:57:53.656Z,74.10
2024-02-27T17:00:20.218Z,74.00
2024-02-27T17:02:46.717Z,74.00
2024-02-27T17:05:13.275Z,74.00
2024-02-27T17:07:39.776Z,74.10
2024-02-27T17:10:06.330Z,74.10
2024-02-27T17:12:32.830Z,74.10
2024-02-27T17:14:59.424Z,74.10
2024-02-27T17:17:26.046Z,74.10
2024-02-27T17:19:52.641Z,74.00
2024-02-27T17:22:19.155Z,74.10
2024-02-27T17:24:45.723Z,74.00
2024-02-27T17:27:12.239Z,74.00
2024-02-27T17:29:38.852Z,74.10
2024-02-27T17:32:05.420Z,74.00
2024-02-27T17:34:32.017Z,74.10
2024-02-27T17:36:58.581Z,74.00
2024-02-27T17:39:25.190Z,74.00
2024-02-27T17:41:51.718Z,73.90
2024-02-27T17:44:18.252Z,74.10
2024-02-27T17:46:44.767Z,74.00
2024-02-27T17:49:11.362Z,74.00
2024-02-27T17:51:37.955Z,74.00
2024-02-27T17:54:04.527Z,73.90
2024-02-27T17:56:31.039Z,73.90
2024-02-27T17:58:57.556Z,73.90
2024-02-27T18:01:24.151Z,74.00
2024-02-27T18:03:50.779Z,74.00
2024-02-27T18:06:17.469Z,74.00
2024-02-27T18:08:44.074Z,73.90
2024-02-27T18:11:10.598Z,74.00
2024-02-27T18:13:37.126Z,74.00
2024-02-27T18:16:03.642Z,73.90
2024-02-27T18:18:30.322Z,74.00
2024-02-27T18:20:56.854Z,74.00
2024-02-27T18:23:23.373Z,73.90
2024-02-27T18:25:49.866Z,73.90
2024-02-27T18:28:16.393Z,73.80
2024-02-27T18:30:42.954Z,73.80
2024-02-27T18:33:09.609Z,73.70
2024-02-27T18:35:36.216Z,73.90
2024-02-27T18:38:02.761Z,73.70
2024-02-27T18:40:29.300Z,73.70
2024-02-27T18:42:55.843Z,73.60
2024-02-27T18:45:22.418Z,73.80
2024-02-27T18:47:48.984Z,73.80
2024-02-27T18:50:15.520Z,73.80
2024-02-27T18:52:42.043Z,73.80
2024-02-27T18:55:08.540Z,73.90
2024-02-27T18:57:35.150Z,73.80
2024-02-27T19:00:01.658Z,73.80
2024-02-27T19:02:28.188Z,73.60
2024-02-27T19:04:54.774Z,73.60
2024-02-27T19:07:21.294Z,73.80
2024-02-27T19:09:48.028Z,73.60
2024-02-27T19:12:15.045Z,73.70
2024-02-27T19:14:41.733Z,73.50
2024-02-27T19:17:08.253Z,73.50
2024-02-27T19:19:34.752Z,73.50
2024-02-27T19:22:01.282Z,73.50
2024-02-27T19:24:27.806Z,73.50
2024-02-27T19:26:54.337Z,73.50
2024-02-27T19:29:20.827Z,73.40
2024-02-27T19:31:47.351Z,73.30
2024-02-27T19:34:13.852Z,73.30
2024-02-27T19:36:40.409Z,73.40
2024-02-27T19:39:07.043Z,73.50
2024-02-27T19:41:33.652Z,73.30
2024-02-27T19:44:00.163Z,73.20
2024-02-27T19:46:26.707Z,73.10
2024-02-27T19:48:53.308Z,73.10
2024-02-27T19:51:19.925Z,73.00
2024-02-27T19:53:46.414Z,73.40
2024-02-27T19:56:12.942Z,73.00
2024-02-27T19:58:39.441Z,73.00
2024-02-27T20:01:06.028Z,73.10
2024-02-27T20:03:32.667Z,73.20
2024-02-27T20:05:59.235Z,73.20
2024-02-27T20:08:25.748Z,72.90
2024-02-27T20:10:52.271Z,72.90
2024-02-27T20:13:20.221Z,72.90
2024-02-27T20:15:46.938Z,72.70
2024-02-27T20:18:13.525Z,72.80
2024-02-27T20:20:40.118Z,72.70
2024-02-27T20:23:06.605Z,72.90
2024-02-27T20:25:33.122Z,72.60
2024-02-27T20:27:59.611Z,72.40
2024-02-27T20:30:26.188Z,72.50
2024-02-27T20:32:52.786Z,72.80
2024-02-27T20:35:19.334Z,72.60
2024-02-27T20:37:49.010Z,72.50
2024-02-27T20:40:15.725Z,72.50
2024-02-27T20:42:42.334Z,72.60
2024-02-27T20:45:08.958Z,72.60
2024-02-27T20:47:35.488Z,72.30
2024-02-27T20:50:02.030Z,72.30
2024-02-27T20:52:28.541Z,72.30
2024-02-27T20:54:55.127Z,72.90
2024-02-27T20:57:21.670Z,72.30
2024-02-27T20:59:48.199Z,72.20
2024-02-27T21:02:14.694Z,72.30
2024-02-27T21:04:41.223Z,72.20
2024-02-27T21:07:07.726Z,72.20
2024-02-27T21:09:34.295Z,72.10
2024-02-27T21:12:00.832Z,72.00
2024-02-27T21:14:27.345Z,72.00
2024-02-27T21:16:53.839Z,72.00
2024-02-27T21:19:20.367Z,72.10
2024-02-27T21:21:46.987Z,72.10
2024-02-27T21:24:13.600Z,72.20
2024-02-27T21:26:40.223Z,72.00
2024-02-27T21:29:06.730Z,72.00
2024-02-27T21:31:33.291Z,72.20
2024-02-27T21:33:59.834Z,72.00
2024-02-27T21:36:26.418Z,71.90
2024-02-27T21:38:52.937Z,71.90
2024-02-27T21:41:19.427Z,72.10
2024-02-27T21:43:45.937Z,72.00
2024-02-27T21:46:12.422Z,72.10
2024-02-27T21:48:38.974Z,72.30
2024-02-27T21:51:05.477Z,72.20
2024-02-27T21:53:32.000Z,72.50
2024-02-27T21:55:58.505Z,72.40
2024-02-27T21:58:25.025Z,72.70
2024-02-27T22:00:51.869Z,72.30
2024-02-27T22:03:18.541Z,72.60
2024-02-27T22:05:45.051Z,72.30
2024-02-27T22:08:11.570Z,72.30
2024-02-27T22:10:38.080Z,72.20
2024-02-27T22:13:04.597Z,72.30
2024-02-27T22:15:31.183Z,72.10
2024-02-27T22:17:57.846Z,72.00
2024-02-27T22:20:24.377Z,72.10
2024-02-27T22:22:50.922Z,71.80
2024-02-27T22:25:17.444Z,71.80
2024-02-27T22:27:44.000Z,72.10
2024-02-27T22:30:10.646Z,71.70
2024-02-27T22:32:37.406Z,71.90
2024-02-27T22:35:03.962Z,71.80
2024-02-27T22:37:30.512Z,71.40
2024-02-27T22:39:57.143Z,71.30
2024-02-27T22:42:23.791Z,71.70
2024-02-27T22:44:50.330Z,71.50
2024-02-27T22:47:16.868Z,71.40
2024-02-27T22:49:43.369Z,71.50
2024-02-27T22:52:09.986Z,71.40
2024-02-27T22:54:36.538Z,71.50
2024-02-27T22:57:03.116Z,71.70
2024-02-27T22:59:29.609Z,71.70
2024-02-27T23:01:56.146Z,71.60
2024-02-27T23:04:22.692Z,71.60
2024-02-27T23:06:49.240Z,71.60
2024-02-27T23:09:15.752Z,71.60
2024-02-27T23:11:42.267Z,71.20
2024-02-27T23:14:08.783Z,71.50
2024-02-27T23:16:35.290Z,71.50
2024-02-27T23:19:01.869Z,71.30
2024-02-27T23:21:28.451Z,71.70
2024-02-27T23:23:54.989Z,71.50
2024-02-27T23:26:21.559Z,71.30
2024-02-27T23:28:48.100Z,71.50
2024-02-27T23:31:14.615Z,71.30
2024-02-27T23:33:41.163Z,71.20
2024-02-27T23:36:07.705Z,71.00
2024-02-27T23:38:34.302Z,71.00
2024-02-27T23:41:00.854Z,71.00
2024-02-27T23:43:27.440Z,70.80
2024-02-27T23:45:54.024Z,71.20
2024-02-27T23:48:20.620Z,71.10
2024-02-27T23:50:47.170Z,71.00
2024-02-27T23:53:13.699Z,70.90
2024-02-27T23:55:40.203Z,70.70
2024-02-27T23:58:06.713Z,71.00
